Latest Weather Observations for Mount Keith

IDW60801

Issued at 6:05 pm WST Wednesday 23 April 2014 (issued every 30 minutes, with the page automatically refreshed every 10 minutes)

About weather observations | Map of weather stations | Latest weather observations for WA | Other Formats
Station Details ID: 512019 Name: MOUNT KEITH Lat: -27.29 Lon: 120.55 Height: 542.33 m
Data from the previous 72 hours. | See also: Recent months for locations in Western Australia
Date/Time
WST
Temp
°C
App
Temp
°C
Dew
Point
Rel
Hum
%
Delta-T
°C
Wind Press
QNH
hPa
Press
MSL
hPa
Rain
since 9 am
mm
Dir
 
Spd
km/h
Gust
km/h
Spd
kts
Gust
kts
23/06:00pm 29.4 26.4 4.1 20 13.3 W 9 11 5 6 1012.7 1010.0 0.0
23/05:30pm 30.8 27.0 3.8 18 14.2 W 13 17 7 9 1012.5 - 0.0
23/05:00pm 32.3 28.0 3.3 16 15.2 WNW 15 22 8 12 1012.3 1009.6 0.0
23/04:30pm 32.2 27.1 3.2 16 15.2 NW 19 26 10 14 1012.1 - 0.0
23/04:00pm 33.0 29.6 3.9 16 15.5 NW 11 17 6 9 1011.9 1009.2 0.0
23/03:30pm 32.1 26.9 2.2 15 15.4 NW 19 24 10 13 1012.0 - 0.0
23/03:00pm 32.8 28.0 2.8 15 15.7 NNW 17 28 9 15 1011.9 1009.2 0.0
23/02:30pm 32.1 27.4 3.1 16 15.2 N 17 24 9 13 1012.0 - 0.0
23/02:00pm 32.5 27.5 3.5 16 15.3 NNW 19 28 10 15 1012.3 1009.6 0.0
23/01:30pm 32.7 28.3 4.5 17 15.1 N 17 26 9 14 1012.5 - 0.0
23/01:00pm 31.9 26.5 4.6 18 14.6 N 22 35 12 19 1013.2 1010.4 0.0
23/12:30pm 31.8 26.4 4.6 18 14.6 N 22 33 12 18 1013.6 - 0.0
23/12:00pm 30.9 24.5 5.3 20 13.8 N 28 37 15 20 1014.2 1011.5 0.0
23/11:30am 30.2 25.3 6.8 23 12.9 N 22 32 12 17 1014.8 - 0.0
23/11:00am 28.3 23.8 8.6 29 11.1 NNE 22 33 12 18 1015.5 1012.8 0.0
23/10:30am 26.8 22.0 8.7 32 10.1 NNE 24 30 13 16 1015.9 - 0.0
23/10:00am 25.9 19.9 8.8 34 9.5 NNE 30 39 16 21 1016.1 1013.4 0.0
23/09:30am 24.9 19.4 9.2 37 8.8 NNE 28 37 15 20 1016.6 - 0.0
23/09:00am 22.3 18.7 10.5 47 6.6 NE 20 28 11 15 1017.1 1014.4 0.0
23/08:30am 21.1 17.4 10.3 50 6.0 NE 20 30 11 16 1017.1 - 0.0
23/08:00am 19.4 16.3 10.4 56 5.0 ENE 17 24 9 13 1016.9 1014.3 0.0
23/07:30am 18.0 16.0 10.1 60 4.3 ENE 11 17 6 9 1016.9 - 0.0
23/07:00am 15.9 14.6 10.0 68 3.2 E 7 11 4 6 1016.7 1014.1 0.0
23/06:30am 15.5 13.8 9.8 69 3.1 E 9 11 5 6 1016.5 - 0.0
23/06:00am 15.3 13.6 9.9 70 2.9 E 9 11 5 6 1016.3 1013.6 0.0
23/05:30am 15.1 13.4 9.9 71 2.8 E 9 9 5 5 1016.4 - 0.0
23/05:00am 14.8 12.7 9.8 72 2.7 E 11 11 6 6 1016.1 1013.4 0.0
23/04:30am 15.0 12.9 9.8 71 2.8 E 11 11 6 6 1016.1 - 0.0
23/04:00am 15.3 13.2 9.9 70 2.9 E 11 13 6 7 1015.9 1013.2 0.0
23/03:30am 15.6 13.5 9.9 69 3.1 E 11 11 6 6 1016.0 - 0.0
23/03:00am 15.9 13.8 9.8 67 3.3 E 11 11 6 6 1016.0 1013.3 0.0
23/02:30am 16.4 14.3 9.8 65 3.6 E 11 11 6 6 1016.0 - 0.0
23/02:00am 16.9 15.3 10.1 64 3.7 E 9 11 5 6 1016.3 1013.6 0.0
23/01:30am 17.5 15.8 9.9 61 4.1 E 9 11 5 6 1016.5 - 0.0
23/01:00am 18.3 16.3 10.2 59 4.4 E 11 13 6 7 1016.8 1014.2 0.0
23/12:30am 19.0 17.0 10.3 57 4.8 E 11 15 6 8 1017.1 - 0.0
23/12:00am 19.5 17.5 10.2 55 5.1 E 11 15 6 8 1017.1 1014.4 0.0
 
Date/Time
WST
Temp
°C
App
Temp
°C
Dew
Point
Rel
Hum
%
Delta-T
°C
Wind Press
QNH
hPa
Press
MSL
hPa
Rain
since 9 am
mm
Dir
 
Spd
km/h
Gust
km/h
Spd
kts
Gust
kts
22/11:30pm 19.8 17.8 10.2 54 5.3 E 11 13 6 7 1017.1 - 0.0
22/11:00pm 20.3 18.3 10.1 52 5.6 E 11 15 6 8 1017.1 1014.4 0.0
22/10:30pm 20.3 18.3 10.1 52 5.6 E 11 15 6 8 1017.1 - 0.0
22/10:00pm 20.9 18.5 10.1 50 6.0 E 13 17 7 9 1017.3 1014.6 0.0
22/09:30pm 21.7 19.0 10.2 48 6.4 E 15 20 8 11 1017.3 - 0.0
22/09:00pm 22.3 19.1 10.1 46 6.8 ESE 17 22 9 12 1017.5 1014.8 0.0
22/08:30pm 22.8 19.7 10.3 45 7.0 ESE 17 24 9 13 1017.5 - 0.0
22/08:00pm 23.3 20.2 10.4 44 7.3 ESE 17 22 9 12 1017.5 1014.8 0.0
22/07:30pm 23.7 20.6 10.4 43 7.5 ESE 17 22 9 12 1017.5 - 0.0
22/07:00pm 24.2 21.4 10.1 41 7.9 ESE 15 19 8 10 1017.3 1014.6 0.0
22/06:30pm 25.1 22.0 10.2 39 8.5 ESE 17 24 9 13 1017.1 - 0.0
22/06:00pm 25.7 22.8 9.5 36 9.1 ESE 15 20 8 11 1016.7 1014.1 0.0
22/05:30pm 26.5 22.9 9.8 35 9.5 ESE 19 26 10 14 1016.5 - 0.0
22/05:00pm 27.4 24.1 9.7 33 10.1 ESE 17 24 9 13 1016.4 1013.7 0.0
22/04:30pm 28.0 24.6 9.3 31 10.6 ESE 17 22 9 12 1016.2 - 0.0
22/04:00pm 28.5 25.5 9.2 30 10.9 ESE 15 24 8 13 1016.3 1013.6 0.0
22/03:30pm 28.6 24.9 9.3 30 11.0 ESE 19 28 10 15 1016.4 - 0.0
22/03:00pm 28.5 26.1 8.7 29 11.1 ENE 11 17 6 9 1016.5 1013.8 0.0
22/02:30pm 28.5 25.7 8.7 29 11.1 E 13 22 7 12 1016.6 - 0.0
22/02:00pm 27.7 24.6 9.0 31 10.5 ENE 15 20 8 11 1016.7 1014.1 0.0
22/01:30pm 27.4 24.4 9.3 32 10.2 NE 15 20 8 11 1016.9 - 0.0
22/01:00pm 27.3 24.8 9.6 33 10.0 E 13 20 7 11 1017.3 1014.6 0.0
22/12:30pm 26.8 23.9 9.6 34 9.7 ENE 15 22 8 12 1017.8 - 0.0
22/12:00pm 25.4 22.1 9.7 37 8.8 E 17 26 9 14 1018.2 1015.5 0.0
22/11:30am 25.2 21.6 9.9 38 8.6 ENE 19 32 10 17 1018.7 - 0.0
22/11:00am 24.1 20.5 10.4 42 7.7 ENE 20 28 11 15 1019.1 1016.4 0.0
22/10:30am 23.9 20.3 10.6 43 7.6 ENE 20 28 11 15 1019.5 - 0.0
22/10:00am 22.8 18.8 10.6 46 6.9 E 22 30 12 16 1019.8 1017.1 0.0
22/09:30am 21.7 18.2 10.8 50 6.1 ENE 20 28 11 15 1020.1 - 0.0
22/09:00am 20.5 16.1 10.3 52 5.7 ENE 24 33 13 18 1020.2 1017.6 0.0
22/08:30am 19.8 15.3 10.2 54 5.3 ENE 24 33 13 18 1020.2 - 0.0
22/08:00am 18.9 15.3 10.7 59 4.5 E 20 32 11 17 1020.2 1017.6 0.0
22/07:30am 17.5 13.9 10.6 64 3.8 E 20 28 11 15 1019.9 - 0.0
22/07:00am 16.4 14.2 10.9 70 3.0 E 13 19 7 10 1019.8 1017.1 0.0
22/06:30am 15.1 12.9 10.7 75 2.4 E 13 17 7 9 1019.4 - 0.0
22/06:00am 14.5 12.6 10.5 77 2.2 E 11 13 6 7 1019.3 1016.6 0.0
22/05:30am 14.7 12.8 10.5 76 2.3 E 11 13 6 7 1019.3 - 0.0
22/05:00am 15.3 13.8 10.5 73 2.6 E 9 11 5 6 1019.0 1016.3 0.0
22/04:30am 15.9 14.1 10.7 71 2.8 E 11 15 6 8 1018.6 - 0.0
22/04:00am 16.2 14.3 10.5 69 3.1 E 11 15 6 8 1018.4 1015.8 0.0
22/03:30am 16.6 14.3 10.5 67 3.3 ESE 13 15 7 8 1018.3 - 0.0
22/03:00am 17.4 15.2 10.8 65 3.6 ESE 13 19 7 10 1018.1 1015.4 0.0
22/02:30am 17.6 15.4 10.7 64 3.8 ESE 13 19 7 10 1018.1 - 0.0
22/02:00am 17.9 15.6 10.5 62 4.1 ESE 13 17 7 9 1018.2 1015.5 0.0
22/01:30am 18.3 16.1 10.7 61 4.2 ESE 13 20 7 11 1018.2 - 0.0
22/01:00am 18.9 16.3 10.7 59 4.5 ESE 15 20 8 11 1018.3 1015.7 0.0
22/12:30am 19.0 16.4 10.6 58 4.7 ESE 15 24 8 13 1018.2 - 0.0
22/12:00am 19.3 17.0 10.6 57 4.8 ESE 13 20 7 11 1018.1 1015.4 0.0
 
Date/Time
WST
Temp
°C
App
Temp
°C
Dew
Point
Rel
Hum
%
Delta-T
°C
Wind Press
QNH
hPa
Press
MSL
hPa
Rain
since 9 am
mm
Dir
 
Spd
km/h
Gust
km/h
Spd
kts
Gust
kts
21/11:30pm 19.8 17.1 10.5 55 5.2 ESE 15 20 8 11 1018.1 - 0.0
21/11:00pm 19.8 17.4 10.0 53 5.4 ESE 13 17 7 9 1018.0 1015.3 0.0
21/10:30pm 20.5 17.6 9.7 50 5.9 ESE 15 20 8 11 1018.1 - 0.0
21/10:00pm 21.0 18.1 9.6 48 6.3 SE 15 20 8 11 1017.9 1015.2 0.0
21/09:30pm 21.6 17.9 9.5 46 6.7 SE 19 26 10 14 1018.0 - 0.0
21/09:00pm 22.2 18.9 9.7 45 6.9 SE 17 20 9 11 1018.0 1015.3 0.0
21/08:30pm 22.7 19.4 9.5 43 7.3 SE 17 20 9 11 1017.6 - 0.0
21/08:00pm 23.1 19.4 9.5 42 7.5 SSE 19 26 10 14 1017.3 1014.6 0.0
21/07:30pm 23.8 19.4 9.0 39 8.2 SSE 22 28 12 15 1017.2 - 0.0
21/07:00pm 24.6 20.7 8.5 36 8.8 SSE 19 26 10 14 1016.7 1014.1 0.0
21/06:30pm 25.3 21.7 8.3 34 9.3 SSE 17 22 9 12 1016.3 - 0.0
21/06:00pm 26.3 22.6 7.8 31 10.1 S 17 22 9 12 1015.9 1013.2 0.0
21/05:30pm 27.4 23.4 6.8 27 11.2 S 17 24 9 13 1015.5 - 0.0
21/05:00pm 28.4 23.9 5.9 24 12.1 SSW 19 22 10 12 1014.9 1012.3 0.0
21/04:30pm 29.1 24.4 5.2 22 12.7 S 19 24 10 13 1014.8 - 0.0
21/04:00pm 30.3 25.7 5.6 21 13.3 SW 19 32 10 17 1014.6 1011.9 0.0
21/03:30pm 29.6 25.4 5.6 22 12.9 SW 17 26 9 14 1014.4 - 0.0
21/03:00pm 30.3 25.7 5.6 21 13.3 SSW 19 28 10 15 1014.5 1011.8 0.0
21/02:30pm 29.4 24.1 4.8 21 13.0 SW 22 30 12 16 1014.5 - 0.0
21/02:00pm 29.9 25.2 5.9 22 13.0 SW 20 30 11 16 1014.5 1011.8 0.0
21/01:30pm 29.2 25.2 6.6 24 12.3 W 17 30 9 16 1014.6 - 0.0
21/01:00pm 28.1 23.4 6.2 25 11.8 WSW 20 32 11 17 1014.8 1012.1 0.0
21/12:30pm 28.3 25.3 7.5 27 11.5 WSW 13 30 7 16 1015.4 - 0.0
21/12:00pm 26.5 23.8 7.5 30 10.4 W 11 20 6 11 1015.9 1013.2 0.0
21/11:30am 26.0 22.6 7.6 31 10.0 SW 15 20 8 11 1016.4 - 0.0
21/11:00am 25.8 23.6 7.9 32 9.8 WSW 9 17 5 9 1016.8 1014.2 0.0
21/10:30am 24.5 23.0 8.5 36 8.8 NE 6 11 3 6 1016.9 - 0.0
21/10:00am 22.7 22.2 8.0 39 7.9 CALM 0 0 0 0 1017.3 1014.6 0.0
21/09:30am 21.9 20.4 8.4 42 7.3 N 6 11 3 6 1017.3 - 0.0
21/09:00am 21.1 19.6 8.4 44 6.8 N 6 9 3 5 1017.2 1014.5 0.0
21/08:30am 21.1 19.5 8.7 45 6.7 N 7 9 4 5 1017.2 - 0.0
21/08:00am 19.6 18.0 8.6 49 5.9 S 7 9 4 5 1016.6 1014.0 0.0
21/07:30am 18.9 17.3 8.8 52 5.4 NNE 7 9 4 5 1016.4 - 0.0
21/07:00am 16.2 14.6 8.2 59 4.2 NNE 6 9 3 5 1016.1 1013.4 0.0
21/06:30am 15.7 14.1 8.2 61 3.9 ENE 6 9 3 5 1015.5 - 0.0
21/06:00am 16.9 15.1 8.1 56 4.6 S 7 11 4 6 1015.3 1012.6 0.0
21/05:30am 17.6 15.5 8.2 54 4.9 SSW 9 13 5 7 1014.8 - 0.0
21/05:00am 17.9 15.3 7.9 52 5.2 SSW 11 17 6 9 1014.4 1011.7 0.0
21/04:30am 18.1 15.9 7.8 51 5.4 SSW 9 15 5 8 1014.0 - 0.0
21/04:00am 18.3 16.0 7.4 49 5.7 SW 9 13 5 7 1013.9 1011.2 0.0
21/03:30am 17.0 14.9 6.8 51 5.2 WSW 7 11 4 6 1013.7 - 0.0
21/03:00am 18.0 15.6 6.8 48 5.7 WNW 9 11 5 6 1013.7 1011.0 0.0
21/02:30am 18.7 15.9 6.9 46 6.1 WNW 11 11 6 6 1013.8 - 0.0
21/02:00am 18.4 15.9 6.6 46 6.0 W 9 11 5 6 1013.8 1011.1 0.0
21/01:30am 18.9 16.2 5.4 41 6.8 W 9 11 5 6 1013.9 - 0.0
21/01:00am 20.1 16.7 5.7 39 7.3 WSW 13 13 7 7 1013.8 1011.1 0.0
21/12:30am 20.9 17.0 5.3 36 7.9 WSW 15 17 8 9 1013.8 - 0.0
21/12:00am 21.3 17.3 4.8 34 8.3 WSW 15 20 8 11 1013.7 1011.0 0.0
 
Date/Time
WST
Temp
°C
App
Temp
°C
Dew
Point
Rel
Hum
%
Delta-T
°C
Wind Press
QNH
hPa
Press
MSL
hPa
Rain
since 9 am
mm
Dir
 
Spd
km/h
Gust
km/h
Spd
kts
Gust
kts
20/11:30pm 21.3 17.6 4.4 33 8.5 WSW 13 15 7 8 1013.7 - 0.0
20/11:00pm 22.0 18.6 4.1 31 8.9 WSW 11 13 6 7 1013.7 1011.0 0.0
20/10:30pm 23.2 19.0 3.7 28 9.8 WSW 15 17 8 9 1013.8 - 0.0
20/10:00pm 24.0 18.9 3.3 26 10.3 WSW 19 28 10 15 1013.8 1011.1 0.0
20/09:30pm 22.8 19.0 1.8 25 10.1 WSW 11 13 6 7 1013.8 - 0.0
20/09:00pm 23.5 20.0 1.2 23 10.7 WSW 9 11 5 6 1013.6 1010.9 0.0
20/08:30pm 24.8 20.9 1.0 21 11.4 WSW 11 13 6 7 1013.5 - 0.0
20/08:00pm 24.9 20.6 1.1 21 11.5 W 13 15 7 8 1013.3 1010.5 0.0
20/07:30pm 25.2 21.2 0.7 20 11.8 WSW 11 13 6 7 1012.9 - 0.0
20/07:00pm 26.0 22.0 0.6 19 12.2 W 11 13 6 7 1012.6 1009.9 0.0
20/06:30pm 27.2 22.9 0.8 18 12.9 WSW 13 15 7 8 1012.4 - 0.0

Other Formats:

Comma delimited format used in spreadsheet applications
http://www.bom.gov.au/fwo/IDW60801/IDW60801.99434.axf

JavaScript Object Notation format (JSON) in row-major order
http://www.bom.gov.au/fwo/IDW60801/IDW60801.99434.json